createdAt,value
2022-11-06T00:01:58.623Z,3.93
2022-11-06T00:04:25.733Z,3.60
2022-11-06T00:06:52.747Z,3.30
2022-11-06T00:09:21.010Z,3.53
2022-11-06T00:11:49.963Z,3.90
2022-11-06T00:14:17.538Z,3.47
2022-11-06T00:16:45.739Z,3.63
2022-11-06T00:19:13.235Z,3.93
2022-11-06T00:21:39.981Z,3.13
2022-11-06T00:24:07.811Z,3.47
2022-11-06T00:26:35.371Z,3.20
2022-11-06T00:29:03.059Z,3.60
2022-11-06T00:31:32.866Z,3.57
2022-11-06T00:34:01.581Z,3.60
2022-11-06T00:36:32.613Z,3.27
2022-11-06T00:39:00.197Z,4.20
2022-11-06T00:41:27.574Z,3.57
2022-11-06T00:43:58.286Z,4.60
2022-11-06T00:46:25.281Z,3.73
2022-11-06T00:48:53.195Z,4.13
2022-11-06T00:51:26.244Z,3.80
2022-11-06T00:53:58.695Z,3.87
2022-11-06T00:56:26.074Z,4.57
2022-11-06T00:58:53.241Z,3.60
2022-11-06T01:01:25.478Z,3.90
2022-11-06T01:03:55.184Z,3.80
2022-11-06T01:06:24.562Z,3.37
2022-11-06T01:08:52.015Z,3.83
2022-11-06T01:11:24.415Z,3.53
2022-11-06T01:13:53.484Z,3.20
2022-11-06T01:16:21.106Z,4.17
2022-11-06T01:18:48.476Z,3.27
2022-11-06T01:21:36.369Z,3.40
2022-11-06T01:24:06.193Z,3.10
2022-11-06T01:26:38.583Z,3.23
2022-11-06T01:29:07.831Z,3.30
2022-11-06T01:31:35.748Z,3.43
2022-11-06T01:34:03.746Z,3.73
2022-11-06T01:36:31.165Z,3.30
2022-11-06T01:39:00.402Z,3.30
2022-11-06T01:41:33.544Z,3.73
2022-11-06T01:44:26.189Z,3.20
2022-11-06T01:46:53.501Z,3.20
2022-11-06T01:49:20.491Z,3.77
2022-11-06T01:51:51.636Z,3.67
2022-11-06T01:54:18.893Z,3.47
2022-11-06T01:56:50.065Z,3.37
2022-11-06T01:59:19.340Z,3.10
2022-11-06T02:01:46.433Z,3.17
2022-11-06T02:04:28.301Z,2.97
2022-11-06T02:06:56.813Z,3.43
2022-11-06T02:09:25.396Z,3.13
2022-11-06T02:12:12.753Z,2.77
2022-11-06T02:15:01.725Z,2.90
2022-11-06T02:17:53.322Z,3.07
2022-11-06T02:20:39.138Z,3.57
2022-11-06T02:23:39.070Z,3.70
2022-11-06T02:26:32.647Z,3.27
2022-11-06T02:29:11.756Z,3.83
2022-11-06T02:31:42.636Z,3.70
2022-11-06T02:34:14.429Z,3.40
2022-11-06T02:36:55.051Z,3.37
2022-11-06T02:39:23.697Z,3.20
2022-11-06T02:41:52.530Z,2.83
2022-11-06T02:44:23.126Z,3.00
2022-11-06T02:46:53.790Z,3.17
2022-11-06T02:49:28.396Z,2.70
2022-11-06T02:51:59.510Z,3.27
2022-11-06T02:54:31.657Z,2.80
2022-11-06T02:57:03.549Z,3.03
2022-11-06T02:59:39.253Z,2.90
2022-11-06T03:02:10.262Z,2.73
2022-11-06T03:04:43.802Z,3.07
2022-11-06T03:07:28.824Z,2.90
2022-11-06T03:09:56.149Z,2.70
2022-11-06T03:12:29.606Z,2.97
2022-11-06T03:14:59.449Z,2.90
2022-11-06T03:17:44.509Z,2.80
2022-11-06T03:20:22.448Z,2.77
2022-11-06T03:22:57.285Z,3.00
2022-11-06T03:25:35.416Z,3.10
2022-11-06T03:28:08.385Z,2.53
2022-11-06T03:30:39.124Z,3.00
2022-11-06T03:33:19.024Z,2.47
2022-11-06T03:35:57.004Z,2.50
2022-11-06T03:38:52.485Z,2.93
2022-11-06T03:41:36.733Z,2.60
2022-11-06T03:44:03.968Z,2.30
2022-11-06T03:46:32.811Z,2.60
2022-11-06T03:49:04.335Z,1.80
2022-11-06T03:51:53.126Z,2.80
2022-11-06T03:54:44.288Z,3.47
2022-11-06T03:57:23.594Z,2.63
2022-11-06T03:59:53.462Z,2.43
2022-11-06T04:02:23.053Z,3.03
2022-11-06T04:04:57.936Z,2.73
2022-11-06T04:07:30.152Z,2.30
2022-11-06T04:10:19.512Z,2.87
2022-11-06T04:13:06.353Z,1.90
2022-11-06T04:15:53.394Z,2.50
2022-11-06T04:18:20.816Z,2.60
2022-11-06T04:21:38.524Z,2.40
2022-11-06T04:25:01.926Z,2.40
2022-11-06T04:27:28.701Z,2.97
2022-11-06T04:30:13.566Z,3.07
2022-11-06T04:32:59.623Z,2.17
2022-11-06T04:35:45.612Z,1.90
2022-11-06T04:38:31.165Z,2.13
2022-11-06T04:41:20.936Z,1.80
2022-11-06T04:43:54.248Z,2.53
2022-11-06T04:46:27.361Z,2.83
2022-11-06T04:48:54.907Z,1.90
2022-11-06T04:51:27.102Z,2.63
2022-11-06T04:53:55.176Z,2.13
2022-11-06T04:56:34.665Z,2.27
2022-11-06T04:59:02.756Z,2.43
2022-11-06T05:01:29.985Z,2.10
2022-11-06T05:03:56.909Z,2.20
2022-11-06T05:06:28.739Z,2.33
2022-11-06T05:08:58.171Z,2.20
2022-11-06T05:11:25.378Z,2.13
2022-11-06T05:13:52.386Z,1.83
2022-11-06T05:16:19.366Z,2.70
2022-11-06T05:18:46.366Z,2.13
2022-11-06T05:21:31.895Z,2.10
2022-11-06T05:23:58.469Z,2.37
2022-11-06T05:26:25.478Z,2.17
2022-11-06T05:28:52.469Z,2.17
2022-11-06T05:31:19.452Z,2.13
2022-11-06T05:33:46.448Z,2.13
2022-11-06T05:36:13.481Z,2.20
2022-11-06T05:38:40.627Z,1.70
2022-11-06T05:41:07.623Z,2.20
2022-11-06T05:43:34.637Z,2.07
2022-11-06T05:46:01.716Z,2.50
2022-11-06T05:48:28.757Z,1.90
2022-11-06T05:51:04.849Z,3.53
2022-11-06T05:53:33.194Z,2.20
2022-11-06T05:56:00.288Z,2.17
2022-11-06T05:58:27.755Z,2.30
2022-11-06T06:00:55.376Z,2.47
2022-11-06T06:03:22.541Z,2.50
2022-11-06T06:05:49.257Z,2.10
2022-11-06T06:08:16.365Z,2.23
2022-11-06T06:10:47.067Z,2.67
2022-11-06T06:13:14.394Z,2.40
2022-11-06T06:15:42.363Z,2.10
2022-11-06T06:18:10.301Z,2.00
2022-11-06T06:20:37.534Z,2.57
2022-11-06T06:23:07.279Z,2.70
2022-11-06T06:25:36.282Z,2.37
2022-11-06T06:28:03.060Z,2.47
2022-11-06T06:30:29.697Z,1.80
2022-11-06T06:32:56.712Z,2.27
2022-11-06T06:35:23.694Z,2.20
2022-11-06T06:37:52.604Z,2.10
2022-11-06T06:40:19.600Z,1.83
2022-11-06T06:42:46.617Z,1.77
2022-11-06T06:45:13.892Z,1.90
2022-11-06T06:47:40.887Z,1.57
2022-11-06T06:50:08.262Z,1.93
2022-11-06T06:52:35.270Z,1.90
2022-11-06T06:55:02.269Z,1.90
2022-11-06T06:57:29.366Z,1.90
2022-11-06T06:59:56.393Z,2.10
2022-11-06T07:02:23.082Z,1.97
2022-11-06T07:04:50.129Z,2.03
2022-11-06T07:07:16.812Z,2.00
2022-11-06T07:09:43.433Z,2.23
2022-11-06T07:12:10.514Z,1.93
2022-11-06T07:14:37.124Z,1.70
2022-11-06T07:17:04.120Z,1.93
2022-11-06T07:19:31.123Z,2.23
2022-11-06T07:21:58.130Z,1.90
2022-11-06T07:24:25.140Z,1.93
2022-11-06T07:26:52.144Z,2.17
2022-11-06T07:29:19.187Z,2.27
2022-11-06T07:31:45.737Z,2.80
2022-11-06T07:34:12.930Z,2.47
2022-11-06T07:36:39.924Z,2.40
2022-11-06T07:39:06.525Z,2.20
2022-11-06T07:41:33.499Z,2.13
2022-11-06T07:44:00.083Z,2.43
2022-11-06T07:46:27.165Z,2.40
2022-11-06T07:48:54.734Z,2.70
2022-11-06T07:51:21.735Z,3.03
2022-11-06T07:53:48.795Z,2.70
2022-11-06T07:56:15.832Z,3.10
2022-11-06T07:58:42.845Z,2.80
2022-11-06T08:01:18.920Z,3.00
2022-11-06T08:03:46.397Z,3.30
2022-11-06T08:06:13.558Z,3.47
2022-11-06T08:08:40.579Z,2.60
2022-11-06T08:11:09.751Z,2.97
2022-11-06T08:13:37.107Z,3.57
2022-11-06T08:16:08.875Z,3.50
2022-11-06T08:18:35.758Z,3.57
2022-11-06T08:21:03.128Z,3.00
2022-11-06T08:23:30.178Z,3.03
2022-11-06T08:26:00.239Z,3.37
2022-11-06T08:28:27.577Z,3.73
2022-11-06T08:30:54.985Z,3.20
2022-11-06T08:33:23.081Z,2.87
2022-11-06T08:35:49.870Z,3.00
2022-11-06T08:38:17.332Z,3.10
2022-11-06T08:40:48.176Z,3.30
2022-11-06T08:43:17.885Z,3.10
2022-11-06T08:45:44.490Z,3.00
2022-11-06T08:48:11.702Z,3.20
2022-11-06T08:50:40.309Z,3.27
2022-11-06T08:53:07.606Z,3.00
2022-11-06T08:55:37.274Z,2.67
2022-11-06T08:58:04.641Z,2.67
2022-11-06T09:00:31.793Z,3.27
2022-11-06T09:03:04.676Z,3.33
2022-11-06T09:05:32.090Z,2.80
2022-11-06T09:07:59.549Z,3.07
2022-11-06T09:10:27.257Z,2.60
2022-11-06T09:12:54.269Z,2.60
2022-11-06T09:15:21.296Z,3.33
2022-11-06T09:17:49.885Z,3.20
2022-11-06T09:20:18.967Z,2.90
2022-11-06T09:22:46.348Z,2.90
2022-11-06T09:25:13.599Z,2.97
2022-11-06T09:27:55.690Z,2.47
2022-11-06T09:30:27.093Z,2.43
2022-11-06T09:32:56.412Z,2.60
2022-11-06T09:35:24.908Z,2.47
2022-11-06T09:37:51.613Z,3.17
2022-11-06T09:40:29.773Z,2.30
2022-11-06T09:42:56.756Z,2.53
2022-11-06T09:45:26.668Z,2.63
2022-11-06T09:48:17.714Z,2.83
2022-11-06T09:51:13.252Z,2.70
2022-11-06T09:53:47.013Z,2.20
2022-11-06T09:56:15.474Z,2.47
2022-11-06T09:58:44.053Z,2.43
2022-11-06T10:01:24.571Z,2.30
2022-11-06T10:04:01.927Z,2.07
2022-11-06T10:06:29.513Z,2.30
2022-11-06T10:09:01.019Z,2.50
2022-11-06T10:11:54.417Z,2.47
2022-11-06T10:14:21.507Z,2.80
2022-11-06T10:16:55.798Z,2.63
2022-11-06T10:19:51.612Z,2.33
2022-11-06T10:22:25.244Z,2.50
2022-11-06T10:25:27.761Z,2.30
2022-11-06T10:28:09.290Z,2.20
2022-11-06T10:30:45.062Z,2.20
2022-11-06T10:33:23.682Z,2.40
2022-11-06T10:36:02.627Z,2.43
2022-11-06T10:38:38.177Z,1.93
2022-11-06T10:41:05.367Z,2.50
2022-11-06T10:43:49.007Z,1.70
2022-11-06T10:46:33.598Z,2.10
2022-11-06T10:49:03.025Z,2.20
2022-11-06T10:51:30.064Z,2.60
2022-11-06T10:54:14.907Z,2.63
2022-11-06T10:56:57.611Z,1.93
2022-11-06T10:59:24.748Z,2.50
2022-11-06T11:01:52.010Z,2.80
2022-11-06T11:04:19.136Z,2.23
2022-11-06T11:06:45.812Z,2.67
2022-11-06T11:09:33.186Z,2.67
2022-11-06T11:12:00.480Z,2.53
2022-11-06T11:14:31.581Z,2.90
2022-11-06T11:17:01.051Z,3.10
2022-11-06T11:19:28.137Z,2.43
2022-11-06T11:22:05.376Z,2.37
2022-11-06T11:24:32.679Z,2.27
2022-11-06T11:27:02.569Z,2.40
2022-11-06T11:29:48.072Z,2.30
2022-11-06T11:32:17.365Z,2.80
2022-11-06T11:34:55.352Z,2.30
2022-11-06T11:37:36.037Z,2.60
2022-11-06T11:40:36.781Z,2.80
2022-11-06T11:43:21.977Z,3.20
2022-11-06T11:46:10.623Z,3.33
2022-11-06T11:48:57.906Z,3.13
2022-11-06T11:51:24.987Z,2.40
2022-11-06T11:53:54.829Z,2.97
2022-11-06T11:56:49.584Z,2.50
2022-11-06T11:59:19.591Z,2.57
2022-11-06T12:01:47.129Z,2.60
2022-11-06T12:04:40.600Z,2.77
2022-11-06T12:07:20.557Z,2.67
2022-11-06T12:09:47.651Z,3.30
2022-11-06T12:12:36.583Z,3.20
2022-11-06T12:15:20.429Z,2.80
2022-11-06T12:17:56.961Z,3.27
2022-11-06T12:20:50.015Z,3.07
2022-11-06T12:23:28.192Z,3.13
2022-11-06T12:26:24.030Z,3.07
2022-11-06T12:29:00.570Z,3.17
2022-11-06T12:31:52.333Z,4.07
2022-11-06T12:34:49.792Z,3.50
2022-11-06T12:37:21.862Z,3.20
2022-11-06T12:40:24.459Z,3.30
2022-11-06T12:43:20.694Z,2.90
2022-11-06T12:45:47.686Z,2.93
2022-11-06T12:48:42.164Z,2.60
2022-11-06T12:51:33.716Z,3.07
2022-11-06T12:54:26.485Z,3.00
2022-11-06T12:56:53.585Z,2.77
2022-11-06T12:59:20.624Z,2.70
2022-11-06T13:02:13.444Z,2.67
2022-11-06T13:05:03.265Z,2.87
2022-11-06T13:07:35.237Z,2.13
2022-11-06T13:10:44.704Z,2.10
2022-11-06T13:13:28.354Z,2.20
2022-11-06T13:16:07.284Z,2.70
2022-11-06T13:18:43.169Z,2.47
2022-11-06T13:21:31.838Z,3.03
2022-11-06T13:24:18.476Z,2.50
2022-11-06T13:26:49.930Z,2.70
2022-11-06T13:29:17.934Z,2.50
2022-11-06T13:31:51.908Z,2.33
2022-11-06T13:34:25.179Z,2.20
2022-11-06T13:36:52.834Z,2.27
2022-11-06T13:39:42.628Z,2.03
2022-11-06T13:42:41.413Z,2.13
2022-11-06T13:45:09.479Z,2.00
2022-11-06T13:47:55.934Z,2.40
2022-11-06T13:50:36.862Z,2.00
2022-11-06T13:54:03.170Z,2.40
2022-11-06T13:56:57.559Z,2.00
2022-11-06T13:59:25.749Z,1.83
2022-11-06T14:02:07.574Z,2.00
2022-11-06T14:05:21.391Z,2.03
2022-11-06T14:07:50.951Z,1.60
2022-11-06T14:10:34.160Z,1.70
2022-11-06T14:13:02.104Z,1.87
2022-11-06T14:15:37.648Z,1.73
2022-11-06T14:18:05.516Z,1.60
2022-11-06T14:20:39.341Z,1.80
2022-11-06T14:23:30.970Z,1.50
2022-11-06T14:25:58.346Z,1.50
2022-11-06T14:28:36.847Z,1.53
2022-11-06T14:31:12.802Z,1.57
2022-11-06T14:33:41.804Z,1.90
2022-11-06T14:36:24.337Z,1.50
2022-11-06T14:38:51.474Z,1.57
2022-11-06T14:41:36.489Z,2.00
2022-11-06T14:44:15.184Z,1.50
2022-11-06T14:46:50.224Z,1.50
2022-11-06T14:49:33.428Z,1.90
2022-11-06T14:52:07.119Z,2.00
2022-11-06T14:54:37.149Z,1.37
2022-11-06T14:57:04.556Z,1.87
2022-11-06T14:59:40.544Z,1.50
2022-11-06T15:02:23.978Z,1.60
2022-11-06T15:05:05.564Z,1.77
2022-11-06T15:08:07.831Z,1.70
2022-11-06T15:10:43.496Z,1.37
2022-11-06T15:13:24.069Z,1.60
2022-11-06T15:15:56.668Z,1.57
2022-11-06T15:18:25.320Z,1.87
2022-11-06T15:20:57.911Z,1.70
2022-11-06T15:23:37.805Z,1.67
2022-11-06T15:26:25.252Z,2.17
2022-11-06T15:29:01.073Z,1.60
2022-11-06T15:31:29.832Z,1.47
2022-11-06T15:34:37.035Z,1.73
2022-11-06T15:37:17.921Z,1.60
2022-11-06T15:39:59.160Z,1.30
2022-11-06T15:42:35.212Z,1.80
2022-11-06T15:45:19.252Z,3.07
2022-11-06T15:47:59.290Z,1.50
2022-11-06T15:50:36.785Z,1.70
2022-11-06T15:53:12.702Z,1.30
2022-11-06T15:56:07.130Z,1.43
2022-11-06T15:58:36.055Z,1.70
2022-11-06T16:01:06.087Z,1.20
2022-11-06T16:03:51.989Z,1.50
2022-11-06T16:06:19.097Z,1.47
2022-11-06T16:08:46.532Z,1.80
2022-11-06T16:11:19.644Z,1.63
2022-11-06T16:13:47.021Z,1.40
2022-11-06T16:16:40.697Z,1.53
2022-11-06T16:19:37.965Z,4.87
2022-11-06T16:22:12.072Z,2.60
2022-11-06T16:25:00.178Z,2.17
2022-11-06T16:27:27.332Z,1.87
2022-11-06T16:29:57.642Z,1.40
2022-11-06T16:32:27.617Z,1.93
2022-11-06T16:34:55.190Z,1.70
2022-11-06T16:37:27.569Z,1.97
2022-11-06T16:39:54.312Z,1.97
2022-11-06T16:42:23.964Z,2.03
2022-11-06T16:45:11.371Z,1.90
2022-11-06T16:47:38.444Z,2.23
2022-11-06T16:50:46.224Z,1.70
2022-11-06T16:53:26.079Z,1.83
2022-11-06T16:56:05.219Z,1.50
2022-11-06T16:58:43.591Z,1.90
2022-11-06T17:01:13.550Z,8.50
2022-11-06T17:03:52.950Z,2.20
2022-11-06T17:06:28.998Z,1.63
2022-11-06T17:09:21.030Z,1.40
2022-11-06T17:11:48.024Z,2.30
2022-11-06T17:14:20.953Z,1.50
2022-11-06T17:16:53.516Z,1.97
2022-11-06T17:19:21.834Z,3.43
2022-11-06T17:21:49.906Z,1.73
2022-11-06T17:27:04.253Z,1.50
2022-11-06T17:29:33.415Z,2.50
2022-11-06T17:32:00.409Z,2.60
2022-11-06T17:34:26.980Z,2.30
2022-11-06T17:36:54.111Z,1.63
2022-11-06T17:39:22.485Z,3.27
2022-11-06T17:41:49.511Z,1.90
2022-11-06T17:44:17.251Z,2.27
2022-11-06T17:46:45.923Z,1.63
2022-11-06T17:49:17.602Z,1.70
2022-11-06T17:51:53.501Z,1.70
2022-11-06T17:54:27.878Z,2.00
2022-11-06T17:56:56.689Z,1.80
2022-11-06T17:59:26.177Z,3.50
2022-11-06T18:01:53.820Z,2.03
2022-11-06T18:04:22.821Z,1.77
2022-11-06T18:06:52.040Z,1.80
2022-11-06T18:09:20.008Z,1.57
2022-11-06T18:11:49.354Z,1.93
2022-11-06T18:14:16.430Z,1.70
2022-11-06T18:16:44.207Z,1.80
2022-11-06T18:19:14.088Z,1.80
2022-11-06T18:21:41.082Z,1.73
2022-11-06T18:24:08.250Z,1.80
2022-11-06T18:26:37.191Z,1.90
2022-11-06T18:29:05.568Z,1.67
2022-11-06T18:31:32.796Z,2.30
2022-11-06T18:33:59.890Z,1.90
2022-11-06T18:36:27.035Z,2.03
2022-11-06T18:38:54.123Z,2.07
2022-11-06T18:41:22.227Z,2.30
2022-11-06T18:43:49.818Z,2.23
2022-11-06T18:46:18.464Z,1.90
2022-11-06T18:48:45.755Z,4.63
2022-11-06T18:51:23.662Z,2.60
2022-11-06T18:54:02.051Z,2.73
2022-11-06T18:56:29.764Z,2.00
2022-11-06T18:58:56.842Z,2.17
2022-11-06T19:01:23.595Z,2.50
2022-11-06T19:03:50.574Z,2.73
2022-11-06T19:06:19.829Z,2.40
2022-11-06T19:08:47.577Z,2.50
2022-11-06T19:11:15.723Z,2.27
2022-11-06T19:13:47.482Z,2.90
2022-11-06T19:16:15.214Z,2.57
2022-11-06T19:18:42.294Z,2.43
2022-11-06T19:21:11.033Z,2.23
2022-11-06T19:23:40.001Z,2.63
2022-11-06T19:26:30.547Z,2.40
2022-11-06T19:28:59.923Z,2.77
2022-11-06T19:31:30.268Z,2.07
2022-11-06T19:33:59.051Z,3.30
2022-11-06T19:36:26.131Z,2.50
2022-11-06T19:38:53.408Z,2.77
2022-11-06T19:41:20.846Z,2.70
2022-11-06T19:43:50.434Z,3.17
2022-11-06T19:46:23.386Z,2.40
2022-11-06T19:48:53.018Z,2.43
2022-11-06T19:51:20.170Z,2.60
2022-11-06T19:53:50.353Z,2.40
2022-11-06T19:56:19.245Z,2.57
2022-11-06T19:58:52.452Z,2.30
2022-11-06T20:01:20.789Z,2.20
2022-11-06T20:03:48.068Z,2.43
2022-11-06T20:06:15.385Z,3.13
2022-11-06T20:08:46.505Z,2.53
2022-11-06T20:11:14.157Z,2.10
2022-11-06T20:13:45.453Z,2.20
2022-11-06T20:16:20.054Z,2.17
2022-11-06T20:18:55.356Z,2.67
2022-11-06T20:21:23.637Z,2.40
2022-11-06T20:23:50.247Z,2.50
2022-11-06T20:26:17.519Z,2.67
2022-11-06T20:28:46.724Z,2.37
2022-11-06T20:31:15.926Z,2.20
2022-11-06T20:33:42.688Z,2.10
2022-11-06T20:36:19.305Z,2.20
2022-11-06T20:38:46.474Z,2.23
2022-11-06T20:41:14.522Z,1.80
2022-11-06T20:43:42.425Z,1.93
2022-11-06T20:46:09.797Z,1.87
2022-11-06T20:48:37.009Z,1.90
2022-11-06T20:51:09.570Z,1.67
2022-11-06T20:53:36.450Z,1.60
2022-11-06T20:56:06.231Z,1.60
2022-11-06T20:58:33.072Z,1.60
2022-11-06T21:01:08.542Z,1.43
2022-11-06T21:03:35.466Z,1.90
2022-11-06T21:06:02.738Z,1.43
2022-11-06T21:08:32.821Z,1.40
2022-11-06T21:11:06.651Z,1.50
2022-11-06T21:13:34.196Z,1.40
2022-11-06T21:16:11.425Z,2.07
2022-11-06T21:18:40.590Z,1.70
2022-11-06T21:21:11.036Z,1.50
2022-11-06T21:23:38.030Z,1.43
2022-11-06T21:26:12.028Z,1.40
2022-11-06T21:28:40.017Z,1.43
2022-11-06T21:31:12.465Z,1.33
2022-11-06T21:33:40.743Z,1.50
2022-11-06T21:36:09.357Z,2.00
2022-11-06T21:38:36.229Z,1.57
2022-11-06T21:41:11.192Z,2.00
2022-11-06T21:43:38.164Z,1.70
2022-11-06T21:46:06.677Z,1.20
2022-11-06T21:48:45.818Z,1.90
2022-11-06T21:51:16.149Z,1.30
2022-11-06T21:54:01.506Z,1.50
2022-11-06T21:56:28.656Z,1.50
2022-11-06T21:58:57.448Z,1.30
2022-11-06T22:01:25.390Z,1.40
2022-11-06T22:03:52.381Z,1.60
2022-11-06T22:06:23.400Z,1.10
2022-11-06T22:08:50.845Z,1.57
2022-11-06T22:11:23.569Z,1.63
2022-11-06T22:13:51.504Z,1.73
2022-11-06T22:16:22.192Z,1.37
2022-11-06T22:18:49.325Z,1.50
2022-11-06T22:21:18.741Z,1.60
2022-11-06T22:23:45.868Z,1.47
2022-11-06T22:26:15.710Z,1.57
2022-11-06T22:28:43.091Z,2.47
2022-11-06T22:31:10.133Z,1.70
2022-11-06T22:33:37.182Z,1.53
2022-11-06T22:36:10.038Z,1.80
2022-11-06T22:38:37.509Z,1.30
2022-11-06T22:41:06.167Z,2.20
2022-11-06T22:43:34.080Z,1.63
2022-11-06T22:46:06.189Z,1.50
2022-11-06T22:48:33.305Z,1.47
2022-11-06T22:51:11.627Z,1.50
2022-11-06T22:53:38.867Z,1.60
2022-11-06T22:56:06.246Z,1.50
2022-11-06T22:58:33.278Z,1.50
2022-11-06T23:01:00.165Z,1.47
2022-11-06T23:03:29.127Z,1.60
2022-11-06T23:05:58.098Z,1.67
2022-11-06T23:08:26.474Z,1.23
2022-11-06T23:10:53.744Z,1.40
2022-11-06T23:13:20.736Z,1.63
2022-11-06T23:15:47.881Z,1.30
2022-11-06T23:18:14.942Z,1.50
2022-11-06T23:20:42.271Z,1.43
2022-11-06T23:23:09.427Z,1.40
2022-11-06T23:25:36.013Z,1.57
2022-11-06T23:28:02.756Z,1.50
2022-11-06T23:30:32.904Z,1.37
2022-11-06T23:32:59.482Z,1.50
2022-11-06T23:35:32.082Z,1.20
2022-11-06T23:37:59.979Z,1.50
2022-11-06T23:40:26.924Z,1.40
2022-11-06T23:42:56.001Z,1.40
2022-11-06T23:45:41.580Z,1.47
2022-11-06T23:48:15.225Z,1.50
2022-11-06T23:50:46.760Z,1.37
2022-11-06T23:53:16.787Z,1.63
2022-11-06T23:55:43.585Z,1.67
2022-11-06T23:58:10.639Z,1.10
